createdAt,value
2022-11-05T00:04:05.905Z,7.27
2022-11-05T00:09:10.121Z,7.30
2022-11-05T00:14:14.178Z,7.25
2022-11-05T00:19:18.356Z,7.14
2022-11-05T00:24:24.320Z,7.15
2022-11-05T00:29:26.647Z,7.03
2022-11-05T00:34:30.826Z,7.00
2022-11-05T00:39:34.948Z,7.06
2022-11-05T00:44:39.139Z,7.12
2022-11-05T00:49:43.289Z,7.09
2022-11-05T00:54:47.502Z,6.93
2022-11-05T00:59:51.625Z,6.77
2022-11-05T01:04:55.792Z,6.63
2022-11-05T01:09:59.937Z,6.55
2022-11-05T01:15:04.103Z,6.48
2022-11-05T01:20:08.277Z,6.38
2022-11-05T01:25:12.420Z,6.31
2022-11-05T01:30:16.587Z,6.33
2022-11-05T01:35:20.743Z,6.28
2022-11-05T01:40:24.925Z,6.19
2022-11-05T01:45:29.139Z,6.19
2022-11-05T01:50:33.239Z,6.18
2022-11-05T01:55:37.395Z,6.22
2022-11-05T02:00:41.557Z,6.12
2022-11-05T02:05:45.759Z,5.99
2022-11-05T02:15:54.070Z,5.92
2022-11-05T02:20:58.190Z,5.85
2022-11-05T02:26:02.393Z,5.81
2022-11-05T02:31:06.552Z,5.74
2022-11-05T02:36:10.709Z,5.74
2022-11-05T02:41:14.916Z,5.77
2022-11-05T02:46:19.036Z,5.74
2022-11-05T02:51:23.179Z,5.80
2022-11-05T02:56:27.386Z,5.91
2022-11-05T03:01:31.652Z,5.95
2022-11-05T03:06:35.667Z,5.89
2022-11-05T03:11:39.860Z,5.77
2022-11-05T03:16:44.036Z,5.64
2022-11-05T03:21:48.180Z,5.62
2022-11-05T03:26:52.359Z,5.53
2022-11-05T03:31:56.520Z,5.57
2022-11-05T03:37:00.712Z,5.53
2022-11-05T03:42:04.821Z,5.67
2022-11-05T03:47:08.966Z,5.56
2022-11-05T03:52:11.287Z,5.30
2022-11-05T03:57:15.438Z,5.36
2022-11-05T04:02:19.754Z,5.32
2022-11-05T04:07:23.763Z,5.19
2022-11-05T04:12:27.945Z,4.98
2022-11-05T04:17:32.078Z,4.90
2022-11-05T04:22:36.253Z,4.92
2022-11-05T04:27:40.397Z,4.89
2022-11-05T04:32:44.583Z,4.89
2022-11-05T04:37:48.736Z,4.86
2022-11-05T04:42:52.945Z,4.90
2022-11-05T04:47:57.058Z,5.11
2022-11-05T04:53:01.253Z,5.30
2022-11-05T04:58:05.394Z,5.32
2022-11-05T05:03:09.775Z,5.18
2022-11-05T05:08:13.753Z,5.21
2022-11-05T05:13:17.888Z,5.21
2022-11-05T05:18:22.037Z,5.21
2022-11-05T05:23:26.186Z,5.30
2022-11-05T05:28:30.397Z,5.22
2022-11-05T05:33:34.514Z,5.39
2022-11-05T05:38:38.724Z,5.42
2022-11-05T05:43:42.864Z,5.44
2022-11-05T05:48:47.013Z,5.43
2022-11-05T05:53:51.184Z,5.41
2022-11-05T05:58:55.370Z,5.42
2022-11-05T06:03:59.495Z,5.42
2022-11-05T06:09:03.686Z,5.50
2022-11-05T06:14:07.883Z,5.49
2022-11-05T06:19:11.988Z,5.50
2022-11-05T06:24:16.178Z,5.51
2022-11-05T06:29:20.327Z,5.52
2022-11-05T06:34:24.496Z,5.50
2022-11-05T06:39:28.630Z,5.56
2022-11-05T06:44:32.860Z,5.51
2022-11-05T06:49:36.981Z,5.40
2022-11-05T06:54:41.133Z,5.42
2022-11-05T06:59:45.290Z,5.45
2022-11-05T07:04:49.484Z,5.43
2022-11-05T07:09:53.687Z,5.41
2022-11-05T07:14:57.785Z,5.37
2022-11-05T07:20:01.961Z,5.35
2022-11-05T07:25:06.110Z,5.27
2022-11-05T07:30:10.311Z,5.30
2022-11-05T07:35:14.463Z,5.38
2022-11-05T07:40:18.960Z,5.45
2022-11-05T07:45:22.772Z,5.55
2022-11-05T07:50:27.161Z,5.60
2022-11-05T07:55:31.112Z,5.61
2022-11-05T08:00:35.391Z,5.68
2022-11-05T08:05:39.439Z,5.78
2022-11-05T08:10:43.611Z,5.90
2022-11-05T08:15:47.839Z,6.05
2022-11-05T08:20:51.950Z,6.21
2022-11-05T08:25:56.052Z,6.30
2022-11-05T08:31:00.267Z,6.38
2022-11-05T08:36:04.389Z,6.47
2022-11-05T08:41:08.563Z,6.60
2022-11-05T08:46:12.711Z,6.74
2022-11-05T08:51:16.935Z,6.84
2022-11-05T08:56:21.044Z,6.94
2022-11-05T09:01:25.339Z,7.04
2022-11-05T09:06:29.370Z,7.17
2022-11-05T09:12:05.282Z,7.30
2022-11-05T09:16:37.709Z,7.42
2022-11-05T09:21:39.995Z,7.55
2022-11-05T09:26:44.120Z,7.66
2022-11-05T09:31:48.313Z,7.80
2022-11-05T09:36:52.467Z,8.00
2022-11-05T09:41:56.652Z,8.13
2022-11-05T09:47:00.785Z,8.28
2022-11-05T09:52:04.967Z,8.40
2022-11-05T09:57:09.114Z,8.56
2022-11-05T10:02:13.408Z,8.70
2022-11-05T10:07:17.420Z,8.82
2022-11-05T10:12:21.571Z,8.93
2022-11-05T10:17:25.745Z,9.03
2022-11-05T10:22:29.935Z,9.23
2022-11-05T10:27:34.073Z,9.41
2022-11-05T10:32:38.251Z,9.38
2022-11-05T10:37:42.388Z,9.35
2022-11-05T10:42:46.573Z,9.31
2022-11-05T10:47:50.758Z,9.38
2022-11-05T10:52:54.991Z,9.65
2022-11-05T10:57:59.030Z,9.86
2022-11-05T11:03:03.194Z,10.01
2022-11-05T11:08:07.404Z,10.14
2022-11-05T11:13:11.879Z,10.29
2022-11-05T11:18:15.737Z,10.39
2022-11-05T11:23:19.875Z,10.46
2022-11-05T11:28:24.036Z,10.40
2022-11-05T11:33:28.182Z,10.57
2022-11-05T11:38:32.313Z,10.64
2022-11-05T11:43:36.489Z,10.70
2022-11-05T11:48:40.683Z,10.73
2022-11-05T11:53:44.804Z,10.83
2022-11-05T11:58:48.991Z,11.11
2022-11-05T12:03:53.151Z,11.48
2022-11-05T12:09:03.684Z,11.36
2022-11-05T12:14:01.444Z,11.33
2022-11-05T12:19:05.622Z,11.29
2022-11-05T12:24:09.808Z,11.14
2022-11-05T12:29:18.785Z,11.09
2022-11-05T12:34:18.103Z,11.11
2022-11-05T12:39:22.284Z,11.10
2022-11-05T12:44:26.433Z,11.02
2022-11-05T12:49:30.604Z,11.14
2022-11-05T12:54:34.772Z,11.13
2022-11-05T12:59:38.900Z,11.08
2022-11-05T13:04:43.085Z,10.99
2022-11-05T13:09:47.284Z,10.90
2022-11-05T13:14:51.440Z,10.78
2022-11-05T13:19:55.648Z,10.67
2022-11-05T13:24:59.772Z,10.64
2022-11-05T13:30:03.951Z,10.66
2022-11-05T13:35:08.140Z,10.84
2022-11-05T13:40:12.280Z,10.95
2022-11-05T13:45:16.403Z,11.01
2022-11-05T13:50:20.657Z,11.10
2022-11-05T13:55:24.762Z,11.20
2022-11-05T14:00:28.875Z,11.21
2022-11-05T14:05:33.039Z,11.07
2022-11-05T14:10:37.235Z,10.90
2022-11-05T14:15:41.367Z,10.75
2022-11-05T14:20:45.531Z,10.63
2022-11-05T14:25:49.719Z,10.53
2022-11-05T14:30:53.846Z,10.50
2022-11-05T14:35:58.077Z,10.49
2022-11-05T14:41:02.204Z,10.41
2022-11-05T14:46:06.340Z,10.38
2022-11-05T14:51:18.147Z,10.31
2022-11-05T14:56:12.809Z,10.24
2022-11-05T15:01:17.049Z,10.21
2022-11-05T15:06:21.113Z,10.18
2022-11-05T15:11:25.225Z,10.13
2022-11-05T15:16:29.439Z,10.05
2022-11-05T15:21:31.687Z,10.00
2022-11-05T15:26:35.823Z,9.98
2022-11-05T15:31:39.979Z,9.91
2022-11-05T15:36:44.172Z,9.86
2022-11-05T15:41:48.350Z,9.77
2022-11-05T15:46:52.507Z,9.71
2022-11-05T15:51:56.679Z,9.67
2022-11-05T15:57:00.792Z,9.64
2022-11-05T16:02:05.095Z,9.59
2022-11-05T16:07:09.131Z,9.58
2022-11-05T16:12:13.292Z,9.58
2022-11-05T16:17:17.427Z,9.53
2022-11-05T16:22:21.597Z,9.52
2022-11-05T16:27:25.815Z,9.53
2022-11-05T16:32:31.123Z,9.50
2022-11-05T16:37:34.120Z,9.52
2022-11-05T16:42:38.233Z,9.47
2022-11-05T16:47:42.425Z,9.45
2022-11-05T16:52:46.694Z,9.35
2022-11-05T16:57:50.723Z,9.32
2022-11-05T17:02:55.020Z,9.34
2022-11-05T17:07:59.094Z,9.39
2022-11-05T17:13:03.226Z,9.42
2022-11-05T17:18:07.417Z,9.39
2022-11-05T17:23:11.901Z,9.34
2022-11-05T17:28:16.202Z,9.35
2022-11-05T17:33:19.912Z,9.35
2022-11-05T17:38:24.051Z,9.40
2022-11-05T17:43:28.206Z,9.42
2022-11-05T17:48:32.364Z,9.48
2022-11-05T17:53:36.524Z,9.46
2022-11-05T17:58:40.719Z,9.46
2022-11-05T18:03:44.896Z,9.45
2022-11-05T18:08:48.994Z,9.46
2022-11-05T18:13:53.169Z,9.46
2022-11-05T18:18:57.341Z,9.47
2022-11-05T18:24:01.492Z,9.43
2022-11-05T18:29:05.641Z,9.40
2022-11-05T18:34:09.838Z,9.41
2022-11-05T18:39:13.961Z,9.38
2022-11-05T18:44:18.129Z,9.42
2022-11-05T18:49:22.283Z,9.42
2022-11-05T18:54:26.483Z,9.40
2022-11-05T18:59:37.670Z,9.40
2022-11-05T19:04:34.772Z,9.39
2022-11-05T19:09:39.029Z,9.41
2022-11-05T19:14:43.102Z,9.36
2022-11-05T19:19:47.269Z,9.36
2022-11-05T19:24:51.423Z,9.36
2022-11-05T19:29:55.805Z,9.36
2022-11-05T19:34:59.722Z,9.34
2022-11-05T19:40:03.881Z,9.34
2022-11-05T19:45:30.372Z,9.31
2022-11-05T19:50:12.204Z,9.30
2022-11-05T19:55:16.404Z,9.29
2022-11-05T20:00:20.547Z,9.26
2022-11-05T20:05:24.693Z,9.22
2022-11-05T20:10:28.832Z,9.20
2022-11-05T20:15:33.007Z,9.16
2022-11-05T20:20:37.137Z,9.15
2022-11-05T20:25:41.355Z,9.13
2022-11-05T20:30:45.474Z,9.10
2022-11-05T20:35:49.673Z,9.11
2022-11-05T20:40:53.820Z,9.09
2022-11-05T20:45:57.983Z,9.11
2022-11-05T20:51:00.238Z,9.08
2022-11-05T20:56:07.818Z,9.06
2022-11-05T21:01:08.625Z,9.07
2022-11-05T21:06:12.743Z,9.01
2022-11-05T21:11:16.887Z,9.01
2022-11-05T21:16:21.098Z,8.99
2022-11-05T21:21:25.245Z,8.94
2022-11-05T21:26:29.424Z,8.93
2022-11-05T21:31:33.555Z,8.92
2022-11-05T21:36:37.697Z,8.88
2022-11-05T21:41:41.882Z,8.85
2022-11-05T21:46:46.007Z,8.75
2022-11-05T21:51:50.198Z,8.70
2022-11-05T21:56:54.316Z,8.70
2022-11-05T22:02:00.573Z,8.71
2022-11-05T22:07:02.680Z,8.69
2022-11-05T22:12:06.841Z,8.62
2022-11-05T22:17:10.999Z,8.61
2022-11-05T22:22:15.181Z,8.61
2022-11-05T22:27:19.338Z,8.57
2022-11-05T22:32:23.478Z,8.54
2022-11-05T22:37:27.637Z,8.56
2022-11-05T22:42:31.955Z,8.53
2022-11-05T22:47:35.947Z,8.46
2022-11-05T22:52:40.137Z,8.41
2022-11-05T22:57:44.266Z,8.37
2022-11-05T23:02:48.559Z,8.30
2022-11-05T23:07:52.598Z,8.22
2022-11-05T23:12:56.766Z,8.19
2022-11-05T23:18:00.943Z,8.16
2022-11-05T23:23:05.098Z,8.11
2022-11-05T23:28:09.449Z,8.07
2022-11-05T23:33:13.434Z,8.08
2022-11-05T23:38:17.562Z,8.13
2022-11-05T23:43:21.742Z,8.10
2022-11-05T23:48:25.908Z,8.08
2022-11-05T23:53:30.049Z,8.11
2022-11-05T23:58:34.241Z,8.14
